Airport View

Enter AWOS ICAO identifier for current METAR.

ex. KFNL

KGZL 120530Z AUTO 18010KT 10SM CLR 06/M08 A3039 RMK AO2

12 Dec 2019 05:33

Frequency: 118.575

Phone: 918-967-8982

Other Area AWOS: KJSV - KMKO - KRKR - KFSM

TAF KFSM 112320Z 1200/1224 06005KT P6SM SKC FM121700 12009KT P6SM SCT250